Time;durP1;ratioP1;P1;durP2;ratioP2;P2;SDS_P1;SDS_P2;PMS_P1;PMS_P2;Temp;Humidity;BMP_temperature;BMP_pressure;BME280_temperature;BME280_humidity;BME280_pressure;Samples;Min_cycle;Max_cycle;Signal;HPM_P1;HPM_P2
2022/08/24 00:02:23;;;;;;;16.35;8.60;;;;;;;20.56;78.98;100368.95;1754347;80;27713;-66
2022/08/24 00:04:51;;;;;;;14.65;8.63;;;;;;;20.53;79.00;100366.39;1771325;80;25634;-66
2022/08/24 00:07:18;;;;;;;14.98;8.88;;;;;;;20.51;79.19;100370.67;1741332;80;27052;-66
2022/08/24 00:09:46;;;;;;;13.22;9.20;;;;;;;20.49;79.40;100368.88;1765047;80;25641;-66
2022/08/24 00:12:14;;;;;;;13.80;9.15;;;;;;;20.45;79.40;100361.98;1746382;80;25706;-66
2022/08/24 00:14:42;;;;;;;19.48;9.45;;;;;;;20.42;79.30;100368.80;1746408;80;25482;-66
2022/08/24 00:17:08;;;;;;;12.70;9.13;;;;;;;20.36;79.43;100364.20;1770723;80;25649;-66
2022/08/24 00:19:35;;;;;;;13.65;9.15;;;;;;;20.30;79.45;100362.37;1754219;80;27475;-66
2022/08/24 00:22:02;;;;;;;13.43;8.33;;;;;;;20.29;79.63;100366.28;1761829;80;26569;-66
2022/08/24 00:24:28;;;;;;;16.20;10.30;;;;;;;20.26;79.79;100363.48;1731799;80;25705;-66
2022/08/24 00:26:54;;;;;;;14.93;8.88;;;;;;;20.23;79.95;100357.39;1724006;80;25629;-66
2022/08/24 00:29:22;;;;;;;14.33;9.15;;;;;;;20.23;80.04;100360.92;1738546;80;25684;-66
2022/08/24 00:31:49;;;;;;;13.70;9.23;;;;;;;20.21;80.15;100359.70;1742598;80;27498;-66
2022/08/24 00:34:16;;;;;;;10.58;8.63;;;;;;;20.19;80.12;100366.93;1742754;80;25387;-66
2022/08/24 00:36:44;;;;;;;16.42;9.45;;;;;;;20.19;80.42;100363.41;1743013;80;25560;-66
2022/08/24 00:39:11;;;;;;;13.53;9.43;;;;;;;20.19;80.43;100366.15;1743291;80;25809;-66
2022/08/24 00:41:45;;;;;;;12.20;9.18;;;;;;;20.18;80.42;100365.37;1758729;80;26233;-66
2022/08/24 00:44:13;;;;;;;16.10;9.03;;;;;;;20.15;80.62;100364.73;1745027;80;27475;-66
2022/08/24 00:46:57;;;;;;;14.75;9.73;;;;;;;20.11;80.50;100362.53;1752461;80;25798;-66
2022/08/24 00:49:54;;;;;;;16.60;10.00;;;;;;;20.10;80.78;100363.09;1747066;80;25599;-65
2022/08/24 00:52:26;;;;;;;16.57;9.13;;;;;;;20.06;80.68;100356.00;1763886;80;25476;-64
2022/08/24 00:55:05;;;;;;;18.17;10.23;;;;;;;20.04;80.57;100363.79;1742481;80;25714;-66
2022/08/24 00:57:36;;;;;;;14.18;9.05;;;;;;;20.00;80.75;100359.63;1746188;80;27494;-64
2022/08/24 01:00:20;;;;;;;13.30;8.78;;;;;;;19.96;80.86;100356.84;1755576;80;25704;-64
2022/08/24 01:02:53;;;;;;;15.28;9.50;;;;;;;19.95;80.94;100355.83;1748406;80;26363;-65
2022/08/24 01:05:20;;;;;;;14.98;9.15;;;;;;;19.91;80.98;100356.38;1752605;81;25650;-65
2022/08/24 01:07:48;;;;;;;16.00;8.85;;;;;;;19.88;80.92;100352.41;1746018;80;25545;-65
2022/08/24 01:10:23;;;;;;;16.67;9.48;;;;;;;19.86;81.12;100356.70;1754545;80;27514;-66
2022/08/24 01:12:55;;;;;;;14.38;8.73;;;;;;;19.84;80.90;100360.39;1745686;80;25702;-65
2022/08/24 01:15:21;;;;;;;15.43;10.23;;;;;;;19.82;80.97;100364.06;1742934;80;25443;-65
2022/08/24 01:20:34;;;;;;;14.38;9.20;;;;;;;19.77;81.02;100373.44;1743761;80;25470;-65
2022/08/24 01:23:06;;;;;;;15.38;9.63;;;;;;;19.71;80.83;100367.42;1751171;80;27546;-65
2022/08/24 01:25:35;;;;;;;14.20;9.65;;;;;;;19.69;80.91;100367.59;1765003;80;25657;-65
2022/08/24 01:28:06;;;;;;;10.40;9.23;;;;;;;19.66;80.94;100364.98;1746235;80;25480;-65
2022/08/24 01:30:33;;;;;;;14.28;9.33;;;;;;;19.65;81.24;100369.47;1763978;80;25631;-65
2022/08/24 01:33:04;;;;;;;12.13;8.65;;;;;;;19.64;81.42;100376.14;1758932;80;25547;-65
2022/08/24 01:35:31;;;;;;;15.90;9.60;;;;;;;19.63;81.53;100377.28;1763745;80;28087;-65
2022/08/24 01:38:02;;;;;;;16.48;9.00;;;;;;;19.62;81.55;100379.25;1743368;80;25707;-65
2022/08/24 01:40:36;;;;;;;16.67;9.50;;;;;;;19.61;81.70;100379.02;1748253;80;25780;-66
2022/08/24 01:43:05;;;;;;;13.78;9.33;;;;;;;19.59;81.64;100374.48;1755533;80;25646;-65
2022/08/24 01:45:33;;;;;;;17.37;9.13;;;;;;;19.58;81.83;100378.38;1763657;80;25601;-65
2022/08/24 01:48:01;;;;;;;13.90;9.30;;;;;;;19.56;81.69;100386.19;1751003;80;27494;-65
2022/08/24 01:50:28;;;;;;;16.57;9.55;;;;;;;19.55;81.93;100384.62;1748540;80;25905;-65
2022/08/24 01:52:57;;;;;;;18.40;9.13;;;;;;;19.53;82.05;100381.44;1752953;80;25478;-65
2022/08/24 01:55:24;;;;;;;14.05;8.90;;;;;;;19.51;82.15;100380.46;1761298;80;25579;-65
2022/08/24 01:57:50;;;;;;;13.98;9.15;;;;;;;19.49;82.07;100384.72;1768843;80;25602;-65
2022/08/24 02:00:17;;;;;;;13.00;8.93;;;;;;;19.47;82.10;100388.41;1741379;80;27540;-65
2022/08/24 02:02:44;;;;;;;16.55;9.28;;;;;;;19.45;82.08;100394.27;1743242;80;25687;-65
2022/08/24 02:05:13;;;;;;;13.18;8.68;;;;;;;19.43;82.08;100402.07;1744069;80;25647;-65
2022/08/24 02:07:40;;;;;;;12.90;8.90;;;;;;;19.38;81.91;100401.78;1765042;80;25558;-65
2022/08/24 02:10:11;;;;;;;15.08;9.50;;;;;;;19.35;81.88;100403.10;1752836;80;25666;-65
2022/08/24 02:12:39;;;;;;;12.07;8.68;;;;;;;19.32;82.23;100403.83;1746329;80;28672;-65
2022/08/24 02:15:09;;;;;;;14.65;9.03;;;;;;;19.29;82.25;100401.81;1760691;80;25644;-65
2022/08/24 02:17:36;;;;;;;13.22;8.20;;;;;;;19.26;82.35;100400.61;1732780;81;25646;-65
2022/08/24 02:20:06;;;;;;;13.45;9.33;;;;;;;19.26;82.60;100400.61;1732068;81;26036;-65
2022/08/24 02:22:32;;;;;;;16.82;8.93;;;;;;;19.26;82.83;100404.72;1663887;85;25694;-65
2022/08/24 02:24:58;;;;;;;11.05;9.20;;;;;;;19.26;82.88;100407.46;1665994;85;27494;-65
2022/08/24 02:27:24;;;;;;;12.58;9.68;;;;;;;19.25;82.89;100407.83;1682369;84;25646;-65
2022/08/24 02:29:50;;;;;;;14.95;10.08;;;;;;;19.22;83.03;100408.77;1682885;83;25856;-65
2022/08/24 02:32:16;;;;;;;16.65;9.30;;;;;;;19.21;83.08;100415.41;1669617;84;26133;-65
2022/08/24 02:34:43;;;;;;;14.65;9.20;;;;;;;19.22;83.22;100421.11;1673205;84;25754;-65
2022/08/24 02:37:10;;;;;;;19.55;9.53;;;;;;;19.21;83.31;100418.73;1689591;84;27541;-65
2022/08/24 02:39:36;;;;;;;12.75;9.30;;;;;;;19.22;83.50;100417.00;1688807;84;25671;-65
2022/08/24 02:42:03;;;;;;;13.65;10.45;;;;;;;19.23;83.33;100419.16;1674832;84;25691;-65
2022/08/24 02:44:30;;;;;;;16.27;9.88;;;;;;;19.24;83.46;100419.38;1654562;85;26265;-65
2022/08/24 02:46:56;;;;;;;13.13;9.70;;;;;;;19.25;83.57;100425.06;1675360;84;25629;-65
2022/08/24 02:49:22;;;;;;;17.67;10.75;;;;;;;19.26;83.65;100421.73;1668354;84;27459;-66
2022/08/24 02:51:49;;;;;;;12.43;9.55;;;;;;;19.26;83.75;100424.47;1668227;84;25871;-65
2022/08/24 02:54:16;;;;;;;16.60;10.63;;;;;;;19.28;83.84;100421.59;1668118;84;25595;-65
2022/08/24 02:56:44;;;;;;;11.53;9.58;;;;;;;19.29;83.77;100427.86;1668263;84;25621;-65
2022/08/24 02:59:10;;;;;;;16.37;10.13;;;;;;;19.28;83.58;100430.41;1689610;84;25564;-65
2022/08/24 03:01:37;;;;;;;14.18;10.25;;;;;;;19.27;83.86;100424.70;1680818;84;27555;-65
2022/08/24 03:04:04;;;;;;;22.55;9.88;;;;;;;19.25;83.95;100420.16;1673565;84;25905;-65
2022/08/24 03:06:31;;;;;;;16.30;9.50;;;;;;;19.27;84.19;100419.99;1689947;84;25553;-65
2022/08/24 03:08:58;;;;;;;17.05;9.98;;;;;;;19.29;84.48;100410.85;1691575;84;25808;-65
2022/08/24 03:11:25;;;;;;;17.10;10.23;;;;;;;19.31;84.74;100408.53;1690198;84;25849;-65
2022/08/24 03:13:51;;;;;;;13.32;9.93;;;;;;;19.35;84.79;100417.59;1666635;84;27525;-65
2022/08/24 03:16:17;;;;;;;13.10;10.28;;;;;;;19.37;84.67;100416.64;1684770;83;25870;-65
2022/08/24 03:18:43;;;;;;;17.92;9.93;;;;;;;19.38;84.62;100422.95;1679721;84;25704;-65
2022/08/24 03:21:09;;;;;;;17.25;9.23;;;;;;;19.37;84.53;100420.76;1722599;82;25637;-65
2022/08/24 03:23:36;;;;;;;13.75;9.40;;;;;;;19.38;84.52;100430.59;1712324;82;26139;-67
2022/08/24 03:26:03;;;;;;;12.95;9.53;;;;;;;19.38;84.24;100429.22;1723871;82;27488;-67
2022/08/24 03:28:30;;;;;;;14.93;9.18;;;;;;;19.38;84.32;100427.06;1700775;82;25580;-67
2022/08/24 03:30:56;;;;;;;12.90;9.78;;;;;;;19.38;84.53;100429.22;1704295;82;25679;-66
2022/08/24 03:33:23;;;;;;;19.27;9.63;;;;;;;19.37;84.74;100422.72;1721661;82;26282;-66
2022/08/24 03:35:50;;;;;;;11.20;9.60;;;;;;;19.39;85.05;100428.06;1713669;82;25528;-66
2022/08/24 03:38:17;;;;;;;19.32;9.38;;;;;;;19.41;84.90;100431.23;1715685;82;27461;-67
2022/08/24 03:40:43;;;;;;;14.15;9.45;;;;;;;19.42;84.68;100430.64;1713940;82;25683;-67
2022/08/24 03:43:44;;;;;;;16.90;10.00;;;;;;;19.44;84.73;100433.80;1715803;82;25678;-65
2022/08/24 03:45:38;;;;;;;16.90;9.17;;;;;;;19.45;84.94;100430.50;1707454;82;25714;-67
2022/08/24 03:48:04;;;;;;;15.63;8.80;;;;;;;19.47;85.22;100430.34;1736789;82;25717;-67
2022/08/24 03:50:30;;;;;;;14.33;10.20;;;;;;;19.50;85.26;100430.98;1714434;82;27705;-65
2022/08/24 03:52:56;;;;;;;14.40;9.10;;;;;;;19.53;85.62;100434.92;1709133;82;25702;-65
2022/08/24 03:55:23;;;;;;;15.98;10.38;;;;;;;19.54;85.30;100436.52;1710276;82;25633;-65
2022/08/24 03:57:49;;;;;;;12.15;8.78;;;;;;;19.54;85.36;100437.31;1708518;82;25602;-65
2022/08/24 04:00:16;;;;;;;13.13;9.68;;;;;;;19.57;85.44;100437.17;1711138;82;25742;-65
2022/08/24 04:02:43;;;;;;;11.48;8.95;;;;;;;19.59;85.30;100450.72;1704427;82;27487;-65
2022/08/24 04:05:11;;;;;;;14.18;10.10;;;;;;;19.62;85.42;100451.95;1723644;82;25773;-65
2022/08/24 04:07:37;;;;;;;14.47;9.08;;;;;;;19.65;85.47;100442.18;1691334;82;26366;-65
2022/08/24 04:10:05;;;;;;;16.37;9.88;;;;;;;19.67;85.40;100444.00;1731324;82;25737;-65
2022/08/24 04:12:31;;;;;;;12.13;9.80;;;;;;;19.68;85.26;100442.27;1727917;82;25688;-65
2022/08/24 04:14:57;;;;;;;16.65;9.98;;;;;;;19.70;85.38;100448.17;1733826;82;27558;-65
2022/08/24 04:17:23;;;;;;;17.98;9.98;;;;;;;19.73;85.54;100450.75;1722355;81;25802;-65
2022/08/24 04:19:58;;;;;;;13.40;9.55;;;;;;;19.76;85.53;100454.16;1749124;81;25721;-65
2022/08/24 04:22:29;;;;;;;16.57;9.83;;;;;;;19.80;85.64;100454.22;1748516;81;26310;-65
2022/08/24 04:24:56;;;;;;;14.65;10.18;;;;;;;19.83;85.70;100456.23;1766679;80;25785;-65
2022/08/24 04:27:22;;;;;;;16.25;10.40;;;;;;;19.85;85.60;100458.02;1747334;81;27525;-65
2022/08/24 04:29:49;;;;;;;14.65;9.83;;;;;;;19.89;85.54;100465.75;1748140;80;25476;-65
2022/08/24 04:32:16;;;;;;;11.97;10.03;;;;;;;19.90;85.61;100465.95;1753358;80;25425;-65
2022/08/24 04:34:43;;;;;;;12.68;10.20;;;;;;;19.93;85.66;100466.00;1743170;81;25679;-65
2022/08/24 04:37:11;;;;;;;13.53;9.88;;;;;;;19.96;85.63;100468.01;1742177;81;25603;-65
2022/08/24 04:39:38;;;;;;;15.10;10.58;;;;;;;19.99;85.75;100470.61;1740441;80;28856;-65
2022/08/24 04:42:06;;;;;;;14.58;10.28;;;;;;;20.04;85.93;100479.09;1751020;81;25808;-65
2022/08/24 04:44:32;;;;;;;16.42;10.78;;;;;;;20.07;86.04;100476.99;1712045;81;25680;-65
2022/08/24 04:47:00;;;;;;;19.17;10.35;;;;;;;20.10;85.92;100482.53;1748091;80;25625;-65
2022/08/24 04:49:26;;;;;;;14.87;10.38;;;;;;;20.13;85.86;100486.52;1743739;81;25713;-67
2022/08/24 04:51:53;;;;;;;59.03;32.73;;;;;;;20.17;85.77;100487.34;1766026;80;27474;-67
2022/08/24 04:54:19;;;;;;;23.10;16.70;;;;;;;20.20;85.78;100494.06;1755719;81;25808;-65
2022/08/24 04:56:46;;;;;;;12.28;10.78;;;;;;;20.22;85.75;100493.89;1751467;80;25750;-65
2022/08/24 04:59:12;;;;;;;15.45;11.00;;;;;;;20.24;85.89;100493.52;1746773;80;25648;-65
2022/08/24 05:01:43;;;;;;;19.07;11.22;;;;;;;20.26;85.77;100491.20;1754915;80;25740;-65
2022/08/24 05:04:09;;;;;;;18.27;11.50;;;;;;;20.29;85.92;100493.20;1737668;81;27598;-66
2022/08/24 05:06:36;;;;;;;21.00;11.90;;;;;;;20.32;85.87;100488.35;1725473;82;25861;-66
2022/08/24 05:09:04;;;;;;;17.50;11.20;;;;;;;20.35;85.93;100483.50;1737205;82;25481;-66
2022/08/24 05:11:31;;;;;;;19.02;11.25;;;;;;;20.40;85.97;100486.48;1738984;82;25681;-66
2022/08/24 05:13:58;;;;;;;17.73;11.00;;;;;;;20.44;85.94;100490.88;1745284;81;25738;-66
2022/08/24 05:16:25;;;;;;;17.40;11.18;;;;;;;20.49;86.03;100493.89;1738113;81;28230;-66
2022/08/24 05:18:53;;;;;;;15.83;10.38;;;;;;;20.52;85.84;100493.15;1729655;82;25663;-66
2022/08/24 05:21:22;;;;;;;17.23;10.93;;;;;;;20.59;85.99;100495.20;1734793;81;25714;-66
2022/08/24 05:23:49;;;;;;;15.38;11.33;;;;;;;20.65;86.20;100499.22;1733342;82;25513;-66
2022/08/24 05:26:21;;;;;;;13.70;10.60;;;;;;;20.71;86.08;100495.78;1720494;82;25738;-66
2022/08/24 05:28:47;;;;;;;18.27;12.60;;;;;;;20.79;85.98;100500.80;1730320;80;27325;-66
2022/08/24 05:31:18;;;;;;;14.23;11.03;;;;;;;20.85;85.77;100506.75;1752256;80;25704;-66
2022/08/24 05:33:45;;;;;;;15.98;11.00;;;;;;;20.92;85.62;100506.05;1750367;80;25632;-66
2022/08/24 05:36:23;;;;;;;16.10;11.22;;;;;;;20.98;85.41;100498.47;1771098;80;25697;-66
2022/08/24 05:38:53;;;;;;;16.75;10.82;;;;;;;21.05;85.26;100499.14;1763910;80;25756;-66
2022/08/24 05:41:20;;;;;;;19.77;11.12;;;;;;;21.10;84.91;100504.30;1763382;80;27518;-66
2022/08/24 05:43:47;;;;;;;15.72;10.65;;;;;;;21.14;84.76;100502.38;1754130;80;25651;-66
2022/08/24 05:46:14;;;;;;;19.32;10.90;;;;;;;21.17;84.80;100500.25;1748495;80;26211;-66
2022/08/24 05:48:42;;;;;;;19.80;10.72;;;;;;;21.26;84.57;100502.11;1767310;80;25551;-66
2022/08/24 05:51:10;;;;;;;20.65;11.57;;;;;;;21.33;84.72;100497.27;1743135;80;25649;-66
2022/08/24 05:53:38;;;;;;;19.23;9.70;;;;;;;21.41;84.60;100490.67;1722605;82;27457;-66
2022/08/24 05:56:09;;;;;;;17.17;11.15;;;;;;;21.48;84.77;100496.08;1740250;80;25566;-66
2022/08/24 05:58:36;;;;;;;22.95;12.13;;;;;;;21.57;84.51;100488.30;1763206;80;25570;-66
2022/08/24 06:01:09;;;;;;;22.67;14.10;;;;;;;21.66;84.50;100483.28;1745369;80;25598;-66
2022/08/24 06:03:37;;;;;;;27.77;14.43;;;;;;;21.73;84.18;100481.17;1757369;80;25583;-66
2022/08/24 06:06:07;;;;;;;21.52;13.38;;;;;;;21.81;83.71;100470.41;1746646;80;28130;-66
2022/08/24 06:08:40;;;;;;;21.00;14.05;;;;;;;21.88;83.30;100468.30;1743036;80;25703;-66
2022/08/24 06:11:07;;;;;;;19.23;12.45;;;;;;;21.96;83.51;100474.87;1760078;80;25521;-66
2022/08/24 06:13:34;;;;;;;15.05;11.40;;;;;;;22.07;83.42;100472.78;1747614;80;25623;-66
2022/08/24 06:16:08;;;;;;;20.85;11.33;;;;;;;22.17;83.28;100481.70;1742945;80;25651;-66
2022/08/24 06:18:35;;;;;;;19.25;10.82;;;;;;;22.29;82.55;100493.81;1763634;80;27434;-66
2022/08/24 06:21:09;;;;;;;15.28;10.78;;;;;;;22.38;82.31;100481.84;1755373;80;25696;-66
2022/08/24 06:23:36;;;;;;;15.55;10.48;;;;;;;22.46;82.17;100481.88;1746336;80;25690;-67
2022/08/24 06:28:51;;;;;;;16.05;9.73;;;;;;;22.74;82.14;100486.75;1759110;80;25785;-65
2022/08/24 06:31:18;;;;;;;17.30;9.05;;;;;;;22.90;82.12;100482.27;1763786;80;27503;-65
2022/08/24 06:33:46;;;;;;;19.40;10.45;;;;;;;23.04;81.90;100482.94;1714005;82;25557;-65
2022/08/24 06:36:13;;;;;;;19.70;8.90;;;;;;;23.23;81.66;100490.10;1751874;80;25631;-65
2022/08/24 06:38:39;;;;;;;15.35;8.28;;;;;;;23.46;81.50;100496.63;1748986;80;26067;-66
2022/08/24 06:41:07;;;;;;;16.35;9.50;;;;;;;23.68;81.53;100491.92;1751508;80;25729;-66
2022/08/24 06:43:33;;;;;;;18.85;9.28;;;;;;;23.90;80.51;100498.88;1758821;80;27446;-66
2022/08/24 06:45:59;;;;;;;16.73;8.43;;;;;;;24.12;79.66;100508.71;1738476;80;25849;-66
2022/08/24 06:48:29;;;;;;;16.23;9.03;;;;;;;24.32;79.01;100517.38;1763039;80;25725;-66
2022/08/24 06:50:56;;;;;;;17.48;9.73;;;;;;;24.56;78.79;100517.14;1747157;80;25774;-66
2022/08/24 06:53:22;;;;;;;19.57;8.83;;;;;;;24.77;77.88;100521.03;1747153;80;25864;-66
2022/08/24 06:55:53;;;;;;;18.75;8.00;;;;;;;25.02;77.52;100525.08;1757729;80;27526;-66
2022/08/24 06:58:20;;;;;;;21.33;9.43;;;;;;;25.30;76.72;100530.30;1730173;80;25765;-67
2022/08/24 07:00:47;;;;;;;31.55;9.48;;;;;;;25.56;75.57;100526.20;1765531;80;26273;-66
2022/08/24 07:03:15;;;;;;;20.75;8.53;;;;;;;25.80;74.95;100526.42;1738368;81;25667;-66
2022/08/24 07:05:52;;;;;;;16.93;8.40;;;;;;;25.99;73.62;100533.42;1750622;80;25758;-66
2022/08/24 07:08:19;;;;;;;25.10;8.70;;;;;;;26.12;72.90;100533.11;1752980;80;28179;-66
2022/08/24 07:10:46;;;;;;;22.27;8.90;;;;;;;26.16;71.83;100541.39;1752148;80;25643;-66
2022/08/24 07:13:13;;;;;;;21.07;8.48;;;;;;;26.17;70.78;100542.94;1739472;80;26056;-66
2022/08/24 07:15:43;;;;;;;20.77;8.60;;;;;;;26.09;70.28;100541.63;1757167;80;25722;-66
2022/08/24 07:18:15;;;;;;;48.48;23.70;;;;;;;26.11;70.68;100541.83;1749056;80;25712;-66
2022/08/24 07:20:43;;;;;;;20.68;10.63;;;;;;;26.22;71.00;100541.92;1766177;80;27392;-67
2022/08/24 07:23:15;;;;;;;22.98;8.68;;;;;;;26.34;70.34;100541.20;1763645;80;25819;-67
2022/08/24 07:25:38;;;;;;;25.90;8.38;;;;;;;26.40;70.37;100542.34;1732427;80;25673;-67
2022/08/24 07:28:05;;;;;;;28.92;9.83;;;;;;;26.40;69.81;100541.73;1738030;80;25629;-67
2022/08/24 07:30:31;;;;;;;28.57;8.90;;;;;;;26.43;69.52;100542.91;1763887;80;25778;-67
2022/08/24 07:32:58;;;;;;;26.50;9.38;;;;;;;26.47;69.15;100542.26;1767079;80;28468;-67
2022/08/24 07:35:26;;;;;;;18.30;8.10;;;;;;;26.51;69.11;100542.22;1761422;80;27460;-65
2022/08/24 07:37:55;;;;;;;25.25;9.18;;;;;;;26.56;69.09;100547.31;1763225;80;25742;-66
2022/08/24 07:40:23;;;;;;;18.50;8.17;;;;;;;26.62;69.17;100543.70;1722979;80;25950;-66
2022/08/24 07:42:52;;;;;;;29.67;9.23;;;;;;;26.67;68.83;100541.09;1733969;80;25748;-67
2022/08/24 07:45:19;;;;;;;23.15;9.53;;;;;;;26.71;68.77;100541.82;1746262;80;27550;-66
2022/08/24 07:47:46;;;;;;;23.67;9.38;;;;;;;26.79;68.38;100532.22;1729153;80;25756;-66
2022/08/24 07:50:14;;;;;;;30.25;8.65;;;;;;;26.86;68.20;100534.12;1719136;82;25717;-66
2022/08/24 07:52:41;;;;;;;24.07;9.40;;;;;;;26.93;68.19;100540.97;1755157;80;26098;-66
2022/08/24 07:55:10;;;;;;;26.12;9.05;;;;;;;26.98;67.72;100536.34;1762514;80;25728;-68
2022/08/24 07:57:38;;;;;;;22.37;9.08;;;;;;;27.03;67.89;100535.87;1741817;80;27830;-67
2022/08/24 08:00:11;;;;;;;26.55;8.40;;;;;;;27.12;67.83;100533.98;1738675;80;26026;-66
2022/08/24 08:02:41;;;;;;;20.17;8.55;;;;;;;27.27;67.47;100538.73;1702471;82;25674;-66
2022/08/24 08:05:08;;;;;;;26.23;9.13;;;;;;;27.43;67.40;100540.95;1741303;82;25824;-66
2022/08/24 08:07:34;;;;;;;25.55;8.38;;;;;;;27.54;66.83;100549.11;1726996;82;25625;-66
2022/08/24 08:12:51;;;;;;;28.07;8.23;;;;;;;27.93;66.13;100554.69;1624629;87;25791;-68
2022/08/24 08:15:17;;;;;;;36.13;8.60;;;;;;;28.05;64.76;100549.13;1631772;87;25761;-68
2022/08/24 08:17:44;;;;;;;32.80;8.50;;;;;;;28.17;64.22;100555.47;1584303;87;25776;-68
2022/08/24 08:20:11;;;;;;;27.27;8.60;;;;;;;28.39;64.43;100549.53;1630349;87;25784;-67
2022/08/24 08:25:22;;;;;;;40.98;9.23;;;;;;;29.15;63.96;100548.23;1631683;87;25687;-67
2022/08/24 08:27:49;;;;;;;38.90;8.30;;;;;;;29.55;63.67;100544.59;1631650;87;25716;-67
2022/08/24 08:30:16;;;;;;;33.88;8.40;;;;;;;30.10;62.95;100554.63;1631673;87;26163;-67
2022/08/24 08:32:42;;;;;;;35.23;8.03;;;;;;;30.59;62.40;100555.16;1623473;87;25737;-67
2022/08/24 08:35:09;;;;;;;34.13;7.55;;;;;;;31.04;60.60;100558.48;1621139;87;27557;-64
2022/08/24 08:37:36;;;;;;;42.05;7.72;;;;;;;31.34;59.43;100560.59;1627979;87;25426;-64
2022/08/24 08:40:07;;;;;;;41.18;8.85;;;;;;;31.72;58.04;100564.81;1620611;87;25793;-65
2022/08/24 08:45:56;;;;;;;47.40;8.18;;;;;;;31.94;56.33;100563.49;1591601;88;25941;-64
2022/08/24 08:48:53;;;;;;;35.33;8.08;;;;;;;31.83;55.19;100565.85;1588292;88;27514;-64
2022/08/24 08:51:49;;;;;;;37.42;8.25;;;;;;;31.75;55.18;100565.91;1661257;84;25767;-66
2022/08/24 08:54:45;;;;;;;47.85;8.03;;;;;;;31.67;54.97;100561.78;1665763;84;25775;-65
2022/08/24 08:57:59;;;;;;;32.28;8.05;;;;;;;31.66;54.97;100573.59;1665663;84;25788;-65
2022/08/24 09:00:45;;;;;;;55.00;8.45;;;;;;;31.65;54.76;100575.61;1659187;84;66346;-66
2022/08/24 09:03:40;;;;;;;39.70;9.03;;;;;;;31.69;54.58;100569.90;1641354;85;27581;-67
2022/08/24 09:06:49;;;;;;;42.55;9.63;;;;;;;31.69;54.27;100571.30;1643362;85;25499;-66
2022/08/24 09:09:48;;;;;;;43.50;8.15;;;;;;;31.72;53.29;100567.61;1639734;86;25731;-66
2022/08/24 09:12:32;;;;;;;56.35;9.93;;;;;;;31.68;52.66;100563.36;1638879;87;25833;-66
2022/08/24 09:15:22;;;;;;;57.08;8.75;;;;;;;31.79;52.19;100565.97;1639097;85;25782;-66
2022/08/24 09:18:29;;;;;;;49.93;9.25;;;;;;;31.88;51.06;100568.70;1636833;86;27764;-66
2022/08/24 09:21:38;;;;;;;46.10;8.10;;;;;;;32.13;50.54;100558.08;1636120;86;25835;-67
2022/08/24 09:24:22;;;;;;;38.25;7.95;;;;;;;32.50;50.36;100559.17;1646153;86;25378;-66
2022/08/24 09:27:25;;;;;;;59.65;9.98;;;;;;;32.90;49.96;100551.55;1628036;85;26395;-66
2022/08/24 09:30:16;;;;;;;47.88;9.13;;;;;;;33.06;48.74;100553.97;1645081;85;25500;-66
2022/08/24 09:33:08;;;;;;;53.25;8.55;;;;;;;33.20;48.09;100552.67;1638835;86;27644;-66
2022/08/24 09:35:52;;;;;;;45.05;8.55;;;;;;;33.32;48.06;100555.98;1645012;85;25768;-66
2022/08/24 09:39:08;;;;;;;46.42;9.33;;;;;;;33.54;48.09;100555.91;1643736;85;25876;-66
2022/08/24 09:42:12;;;;;;;55.83;8.58;;;;;;;33.78;47.56;100555.38;1644696;85;26486;-66
2022/08/24 09:45:03;;;;;;;50.73;8.23;;;;;;;33.92;46.65;100557.61;1637389;87;25685;-67
2022/08/24 09:47:59;;;;;;;48.20;8.08;;;;;;;33.93;46.33;100560.56;1640083;86;27177;-65
2022/08/24 09:50:34;;;;;;;51.50;8.50;;;;;;;34.06;46.61;100564.01;1635174;87;25642;-67
2022/08/24 09:53:39;;;;;;;60.33;9.13;;;;;;;34.22;46.89;100552.36;1625072;86;25673;-65
2022/08/24 09:56:35;;;;;;;47.95;7.30;;;;;;;34.54;45.03;100574.81;1639703;86;25731;-64
2022/08/24 09:59:33;;;;;;;51.53;8.33;;;;;;;34.70;45.48;100554.66;1640069;86;25652;-64
2022/08/24 10:02:34;;;;;;;44.88;8.55;;;;;;;34.97;44.91;100563.08;1651847;84;27706;-66
2022/08/24 10:05:28;;;;;;;48.58;8.48;;;;;;;35.32;44.65;100561.89;1661570;84;25723;-67
2022/08/24 10:08:34;;;;;;;48.55;8.43;;;;;;;35.56;43.80;100560.52;1640523;86;25808;-69
2022/08/24 10:11:36;;;;;;;58.23;12.70;;;;;;;35.81;42.61;100558.52;1637195;86;25798;-69
2022/08/24 10:14:38;;;;;;;48.30;8.83;;;;;;;36.01;43.03;100559.34;1671445;84;25713;-69
2022/08/24 10:17:17;;;;;;;61.88;8.50;;;;;;;36.35;41.78;100557.99;1674816;84;27506;-68
2022/08/24 10:19:58;;;;;;;62.73;8.80;;;;;;;36.68;41.09;100553.47;1682493;84;25931;-67
2022/08/24 10:22:33;;;;;;;61.10;9.83;;;;;;;36.97;41.06;100548.52;1674436;84;25576;-68
2022/08/24 10:25:08;;;;;;;63.10;8.53;;;;;;;37.13;40.57;100548.63;1665834;85;25680;-68
2022/08/24 10:27:58;;;;;;;60.15;9.45;;;;;;;37.32;39.04;100545.73;1639355;85;25457;-68
2022/08/24 10:30:59;;;;;;;66.85;8.80;;;;;;;37.43;38.46;100543.73;1667116;84;27581;-68
2022/08/24 10:33:56;;;;;;;56.88;8.53;;;;;;;37.61;38.29;100544.73;1675989;84;25766;-67
2022/08/24 10:36:57;;;;;;;54.30;8.55;;;;;;;37.82;37.75;100544.93;1669333;84;25775;-67
2022/08/24 10:39:55;;;;;;;60.15;9.68;;;;;;;38.14;37.97;100545.72;1647421;85;26428;-67
2022/08/24 10:43:32;;;;;;;61.50;9.48;;;;;;;38.31;37.02;100542.43;1669732;84;25753;-67
2022/08/24 10:46:33;;;;;;;77.22;10.55;;;;;;;38.55;36.85;100547.04;1671167;84;27611;-68
2022/08/24 10:49:35;;;;;;;78.70;9.50;;;;;;;38.52;35.63;100543.17;1667340;84;25660;-67
2022/08/24 10:52:35;;;;;;;53.85;7.50;;;;;;;38.53;35.82;100549.59;1668259;83;25570;-69
2022/08/24 10:55:19;;;;;;;63.05;9.28;;;;;;;38.81;35.62;100545.66;1668117;84;26007;-68
2022/08/24 10:58:17;;;;;;;61.30;9.20;;;;;;;38.76;33.83;100545.73;1669067;84;25659;-69
2022/08/24 11:00:44;;;;;;;66.02;9.48;;;;;;;38.64;34.57;100547.69;1675750;84;29710;-67
2022/08/24 11:03:21;;;;;;;63.08;8.60;;;;;;;38.90;34.70;100543.28;1674250;84;25488;-67
2022/08/24 11:05:54;;;;;;;53.57;8.23;;;;;;;39.06;33.96;100535.58;1640102;86;25409;-67
2022/08/24 11:08:32;;;;;;;71.85;8.85;;;;;;;39.11;33.91;100537.67;1646130;86;26333;-66
2022/08/24 11:11:12;;;;;;;60.98;8.80;;;;;;;39.43;34.22;100539.05;1626290;86;25715;-66
2022/08/24 11:13:59;;;;;;;56.15;8.55;;;;;;;39.64;33.71;100538.93;1620964;87;28114;-68
2022/08/24 11:16:39;;;;;;;52.03;8.40;;;;;;;39.87;32.91;100540.58;1620007;87;25721;-68
2022/08/24 11:19:32;;;;;;;65.50;8.95;;;;;;;39.99;31.91;100541.42;1627085;87;25741;-68
2022/08/24 11:22:05;;;;;;;65.80;8.48;;;;;;;40.05;31.86;100540.02;1635459;85;26264;-67
2022/08/24 11:24:45;;;;;;;71.57;9.03;;;;;;;39.96;31.32;100544.65;1643370;86;25710;-68
2022/08/24 11:27:31;;;;;;;78.80;11.60;;;;;;;39.94;30.92;100538.70;1638431;86;27536;-68
2022/08/24 11:30:18;;;;;;;70.22;10.28;;;;;;;39.96;30.90;100537.57;1650387;86;25804;-68
2022/08/24 11:32:58;;;;;;;66.22;9.90;;;;;;;40.12;31.01;100537.48;1636017;87;25658;-67
2022/08/24 11:35:35;;;;;;;54.83;8.53;;;;;;;40.18;31.38;100538.14;1609351;87;26046;-67
2022/08/24 11:38:13;;;;;;;63.35;10.10;;;;;;;40.27;31.27;100537.89;1636494;86;25756;-68
2022/08/24 11:40:56;;;;;;;67.72;10.08;;;;;;;40.28;31.21;100539.45;1629596;87;27814;-69
2022/08/24 11:43:34;;;;;;;71.42;9.08;;;;;;;40.29;30.87;100531.86;1626134;88;25776;-68
2022/08/24 11:46:52;;;;;;;62.35;10.15;;;;;;;40.40;31.04;100533.95;1616358;86;25784;-68
2022/08/24 11:49:41;;;;;;;68.30;9.50;;;;;;;40.55;30.59;100540.05;1646461;86;25630;-67
2022/08/24 11:52:14;;;;;;;76.87;8.93;;;;;;;40.69;30.28;100536.95;1647123;86;25719;-68
2022/08/24 11:54:45;;;;;;;68.42;10.82;;;;;;;40.56;30.14;100541.58;1642042;86;28046;-68
2022/08/24 11:57:37;;;;;;;69.32;10.28;;;;;;;40.43;30.73;100536.42;1647164;86;25831;-69
2022/08/24 12:00:14;;;;;;;61.65;8.63;;;;;;;40.54;30.54;100537.08;1632068;86;25345;-69